createdAt,value
2023-02-06T00:01:20.360Z,4.41
2023-02-06T00:03:48.141Z,4.42
2023-02-06T00:06:17.373Z,4.41
2023-02-06T00:08:44.958Z,4.45
2023-02-06T00:11:14.628Z,4.49
2023-02-06T00:13:42.191Z,4.44
2023-02-06T00:16:16.699Z,4.53
2023-02-06T00:18:44.238Z,4.48
2023-02-06T00:21:12.148Z,4.44
2023-02-06T00:23:41.034Z,4.40
2023-02-06T00:26:08.944Z,4.40
2023-02-06T00:28:36.625Z,4.49
2023-02-06T00:31:05.992Z,4.51
2023-02-06T00:33:33.776Z,4.56
2023-02-06T00:36:02.016Z,4.61
2023-02-06T00:38:30.672Z,4.56
2023-02-06T00:40:59.533Z,4.60
2023-02-06T00:43:27.101Z,4.69
2023-02-06T00:45:54.943Z,4.74
2023-02-06T00:48:22.657Z,4.57
2023-02-06T00:50:50.490Z,4.45
2023-02-06T00:53:18.393Z,4.48
2023-02-06T00:55:45.871Z,4.49
2023-02-06T00:58:14.702Z,4.32
2023-02-06T01:00:42.170Z,4.38
2023-02-06T01:03:09.628Z,4.34
2023-02-06T01:05:37.511Z,4.35
2023-02-06T01:08:05.158Z,4.48
2023-02-06T01:10:32.732Z,4.46
2023-02-06T01:13:00.276Z,4.40
2023-02-06T01:15:29.149Z,4.34
2023-02-06T01:17:56.872Z,4.26
2023-02-06T01:20:25.212Z,3.96
2023-02-06T01:22:52.760Z,3.99
2023-02-06T01:25:20.388Z,3.90
2023-02-06T01:27:47.971Z,3.84
2023-02-06T01:30:15.690Z,3.89
2023-02-06T01:32:44.674Z,3.85
2023-02-06T01:35:12.918Z,3.79
2023-02-06T01:37:41.126Z,3.76
2023-02-06T01:40:12.090Z,3.86
2023-02-06T01:42:39.664Z,3.83
2023-02-06T01:45:42.166Z,3.93
2023-02-06T01:48:14.683Z,3.74
2023-02-06T01:50:45.966Z,3.89
2023-02-06T01:53:14.476Z,3.89
2023-02-06T01:55:42.999Z,3.89
2023-02-06T01:58:12.396Z,3.96
2023-02-06T02:00:39.940Z,4.14
2023-02-06T02:03:07.489Z,3.94
2023-02-06T02:05:36.969Z,4.18
2023-02-06T02:08:07.688Z,4.14
2023-02-06T02:10:35.323Z,4.15
2023-02-06T02:13:02.912Z,3.99
2023-02-06T02:15:39.869Z,4.20
2023-02-06T02:18:17.087Z,4.01
2023-02-06T02:21:21.758Z,3.90
2023-02-06T02:23:56.031Z,4.09
2023-02-06T02:26:39.291Z,4.04
2023-02-06T02:29:26.420Z,3.96
2023-02-06T02:32:23.507Z,4.12
2023-02-06T02:35:02.735Z,3.92
2023-02-06T02:37:36.642Z,3.80
2023-02-06T02:40:09.951Z,3.64
2023-02-06T02:42:41.560Z,3.63
2023-02-06T02:45:13.674Z,3.68
2023-02-06T02:47:45.644Z,3.72
2023-02-06T02:50:15.806Z,3.47
2023-02-06T02:52:43.472Z,3.43
2023-02-06T02:55:19.198Z,3.54
2023-02-06T02:57:47.737Z,3.61
2023-02-06T03:00:17.579Z,3.53
2023-02-06T03:02:46.883Z,3.48
2023-02-06T03:05:18.238Z,3.51
2023-02-06T03:07:48.588Z,3.56
2023-02-06T03:10:21.283Z,3.68
2023-02-06T03:12:51.295Z,3.56
2023-02-06T03:15:25.277Z,3.42
2023-02-06T03:17:57.056Z,3.43
2023-02-06T03:20:26.514Z,3.43
2023-02-06T03:22:54.769Z,3.35
2023-02-06T03:25:28.434Z,3.39
2023-02-06T03:27:56.999Z,3.40
2023-02-06T03:30:25.452Z,3.60
2023-02-06T03:32:55.610Z,3.41
2023-02-06T03:35:26.477Z,3.39
2023-02-06T03:37:54.432Z,3.68
2023-02-06T03:40:22.498Z,3.45
2023-02-06T03:42:52.904Z,3.39
2023-02-06T03:45:24.184Z,3.53
2023-02-06T03:47:52.848Z,3.55
2023-02-06T03:50:20.773Z,3.47
2023-02-06T03:52:51.340Z,3.39
2023-02-06T03:55:21.857Z,3.52
2023-02-06T03:57:52.734Z,3.35
2023-02-06T04:00:20.622Z,3.22
2023-02-06T04:02:48.571Z,3.19
2023-02-06T04:05:16.721Z,3.22
2023-02-06T04:07:44.309Z,3.37
2023-02-06T04:10:13.135Z,3.37
2023-02-06T04:12:40.610Z,3.30
2023-02-06T04:15:08.879Z,3.36
2023-02-06T04:17:53.481Z,3.28
2023-02-06T04:20:23.784Z,3.25
2023-02-06T04:22:51.476Z,3.24
2023-02-06T04:25:20.422Z,3.03
2023-02-06T04:27:47.918Z,2.96
2023-02-06T04:30:17.255Z,3.04
2023-02-06T04:32:44.864Z,3.02
2023-02-06T04:35:12.394Z,2.99
2023-02-06T04:37:39.879Z,2.99
2023-02-06T04:40:07.997Z,3.05
2023-02-06T04:42:36.900Z,3.21
2023-02-06T04:45:04.779Z,3.29
2023-02-06T04:47:32.270Z,3.02
2023-02-06T04:49:59.731Z,2.95
2023-02-06T04:52:27.296Z,2.93
2023-02-06T04:54:54.844Z,2.93
2023-02-06T04:57:23.602Z,3.03
2023-02-06T04:59:52.477Z,3.08
2023-02-06T05:02:19.988Z,2.86
2023-02-06T05:04:47.466Z,2.85
2023-02-06T05:07:15.015Z,2.88
2023-02-06T05:09:42.492Z,2.85
2023-02-06T05:12:10.019Z,2.95
2023-02-06T05:14:37.461Z,2.96
2023-02-06T05:17:06.257Z,3.03
2023-02-06T05:19:33.742Z,3.28
2023-02-06T05:22:01.229Z,3.20
2023-02-06T05:24:29.189Z,3.38
2023-02-06T05:26:58.317Z,3.38
2023-02-06T05:29:26.293Z,3.49
2023-02-06T05:31:53.857Z,3.45
2023-02-06T05:34:22.796Z,3.59
2023-02-06T05:36:50.402Z,3.73
2023-02-06T05:39:18.067Z,3.88
2023-02-06T05:41:45.536Z,3.94
2023-02-06T05:44:13.053Z,4.02
2023-02-06T05:46:40.545Z,3.97
2023-02-06T05:49:08.197Z,3.93
2023-02-06T05:51:37.032Z,4.03
2023-02-06T05:54:04.897Z,3.96
2023-02-06T05:56:32.489Z,3.73
2023-02-06T05:58:59.971Z,3.89
2023-02-06T06:01:29.104Z,4.01
2023-02-06T06:03:56.797Z,3.98
2023-02-06T06:06:24.300Z,3.84
2023-02-06T06:08:53.164Z,3.80
2023-02-06T06:11:20.940Z,3.72
2023-02-06T06:13:48.405Z,3.73
2023-02-06T06:16:15.935Z,3.90
2023-02-06T06:18:43.467Z,3.90
2023-02-06T06:21:10.931Z,4.03
2023-02-06T06:23:38.412Z,4.15
2023-02-06T06:26:07.361Z,4.19
2023-02-06T06:28:35.932Z,4.17
2023-02-06T06:31:03.959Z,3.93
2023-02-06T06:33:31.478Z,3.57
2023-02-06T06:35:59.051Z,3.45
2023-02-06T06:38:26.643Z,3.30
2023-02-06T06:40:54.101Z,3.22
2023-02-06T06:43:23.083Z,3.36
2023-02-06T06:45:50.628Z,3.34
2023-02-06T06:48:18.237Z,3.69
2023-02-06T06:50:45.791Z,3.75
2023-02-06T06:53:13.351Z,3.58
2023-02-06T06:55:40.820Z,3.59
2023-02-06T06:58:09.780Z,3.45
2023-02-06T07:00:39.898Z,3.49
2023-02-06T07:03:11.601Z,3.51
2023-02-06T07:05:39.720Z,3.56
2023-02-06T07:08:08.393Z,3.46
2023-02-06T07:10:35.878Z,3.39
2023-02-06T07:13:03.497Z,3.40
2023-02-06T07:15:35.486Z,3.30
2023-02-06T07:18:07.258Z,3.24
2023-02-06T07:20:34.778Z,3.25
2023-02-06T07:23:02.354Z,3.34
2023-02-06T07:25:29.896Z,3.35
2023-02-06T07:27:57.449Z,3.27
2023-02-06T07:30:25.002Z,3.16
2023-02-06T07:32:52.471Z,3.17
2023-02-06T07:35:21.284Z,3.38
2023-02-06T07:37:48.784Z,3.29
2023-02-06T07:40:16.328Z,3.13
2023-02-06T07:42:43.806Z,3.16
2023-02-06T07:45:11.421Z,3.20
2023-02-06T07:47:38.897Z,3.04
2023-02-06T07:50:06.952Z,3.37
2023-02-06T07:52:35.963Z,3.50
2023-02-06T07:55:03.446Z,3.55
2023-02-06T07:57:30.983Z,3.77
2023-02-06T07:59:58.475Z,3.98
2023-02-06T08:02:25.971Z,3.89
2023-02-06T08:04:53.449Z,3.88
2023-02-06T08:07:20.881Z,3.75
2023-02-06T08:09:49.760Z,3.86
2023-02-06T08:12:17.229Z,3.92
2023-02-06T08:14:45.815Z,4.11
2023-02-06T08:17:13.531Z,4.03
2023-02-06T08:19:41.012Z,3.89
2023-02-06T08:22:10.700Z,3.92
2023-02-06T08:24:38.376Z,3.79
2023-02-06T08:27:07.725Z,3.84
2023-02-06T08:29:40.276Z,3.70
2023-02-06T08:32:07.732Z,3.80
2023-02-06T08:34:36.409Z,3.55
2023-02-06T08:37:04.061Z,3.74
2023-02-06T08:39:31.946Z,3.80
2023-02-06T08:41:59.502Z,3.80
2023-02-06T08:44:28.566Z,3.82
2023-02-06T08:47:08.900Z,3.72
2023-02-06T08:49:38.633Z,3.68
2023-02-06T08:52:06.681Z,3.66
2023-02-06T08:54:36.311Z,3.65
2023-02-06T08:57:06.567Z,3.66
2023-02-06T08:59:35.655Z,3.67
2023-02-06T09:02:03.264Z,3.74
2023-02-06T09:04:31.696Z,3.74
2023-02-06T09:06:59.172Z,3.76
2023-02-06T09:09:26.745Z,3.78
2023-02-06T09:11:55.368Z,3.85
2023-02-06T09:14:22.903Z,3.86
2023-02-06T09:16:51.828Z,3.84
2023-02-06T09:19:19.323Z,3.78
2023-02-06T09:21:46.812Z,3.80
2023-02-06T09:24:14.394Z,3.87
2023-02-06T09:26:58.461Z,3.86
2023-02-06T09:29:28.963Z,3.88
2023-02-06T09:31:58.157Z,3.87
2023-02-06T09:34:26.260Z,3.91
2023-02-06T09:36:54.993Z,3.99
2023-02-06T09:39:22.622Z,4.05
2023-02-06T09:41:52.060Z,4.09
2023-02-06T09:44:21.964Z,4.02
2023-02-06T09:46:52.128Z,3.98
2023-02-06T09:49:24.053Z,4.00
2023-02-06T09:52:01.093Z,4.02
2023-02-06T09:54:33.773Z,3.99
2023-02-06T09:57:06.590Z,4.00
2023-02-06T09:59:38.943Z,3.96
2023-02-06T10:02:23.705Z,4.02
2023-02-06T10:04:56.567Z,4.07
2023-02-06T10:07:33.969Z,4.07
2023-02-06T10:10:05.008Z,4.04
2023-02-06T10:12:38.828Z,4.05
2023-02-06T10:15:13.846Z,4.14
2023-02-06T10:17:49.748Z,4.17
2023-02-06T10:20:20.407Z,4.16
2023-02-06T10:22:55.107Z,4.21
2023-02-06T10:25:25.229Z,4.22
2023-02-06T10:27:58.151Z,4.28
2023-02-06T10:30:34.290Z,4.35
2023-02-06T10:33:11.825Z,4.24
2023-02-06T10:35:51.739Z,4.22
2023-02-06T10:38:50.889Z,4.23
2023-02-06T10:41:26.324Z,4.28
2023-02-06T10:43:57.086Z,4.28
2023-02-06T10:46:43.078Z,4.27
2023-02-06T10:49:17.685Z,4.32
2023-02-06T10:51:49.049Z,4.35
2023-02-06T10:54:20.735Z,4.35
2023-02-06T10:56:48.915Z,4.34
2023-02-06T10:59:24.678Z,4.39
2023-02-06T11:01:54.976Z,4.44
2023-02-06T11:04:28.140Z,4.49
2023-02-06T11:07:01.766Z,4.57
2023-02-06T11:09:30.895Z,4.65
2023-02-06T11:11:59.656Z,4.72
2023-02-06T11:14:29.369Z,4.75
2023-02-06T11:17:00.139Z,4.74
2023-02-06T11:19:30.260Z,4.76
2023-02-06T11:22:10.154Z,4.84
2023-02-06T11:24:38.825Z,4.82
2023-02-06T11:27:15.902Z,4.89
2023-02-06T11:29:46.835Z,4.96
2023-02-06T11:32:28.949Z,4.80
2023-02-06T11:34:58.763Z,4.86
2023-02-06T11:37:35.029Z,4.84
2023-02-06T11:40:24.838Z,4.83
2023-02-06T11:42:53.689Z,4.80
2023-02-06T11:45:26.372Z,4.82
2023-02-06T11:47:54.074Z,4.87
2023-02-06T11:50:25.608Z,4.96
2023-02-06T11:53:00.133Z,5.00
2023-02-06T11:55:30.117Z,4.95
2023-02-06T11:58:07.718Z,5.11
2023-02-06T12:00:38.045Z,5.10
2023-02-06T12:03:06.081Z,5.10
2023-02-06T12:05:36.654Z,5.15
2023-02-06T12:08:08.683Z,5.03
2023-02-06T12:10:39.302Z,5.10
2023-02-06T12:13:10.024Z,5.14
2023-02-06T12:15:46.938Z,5.18
2023-02-06T12:18:17.141Z,5.19
2023-02-06T12:20:50.361Z,5.24
2023-02-06T12:23:23.172Z,5.31
2023-02-06T12:25:52.480Z,5.43
2023-02-06T12:28:22.978Z,5.50
2023-02-06T12:30:55.843Z,5.43
2023-02-06T12:33:33.036Z,5.44
2023-02-06T12:36:05.873Z,5.53
2023-02-06T12:38:41.817Z,5.53
2023-02-06T12:41:23.677Z,5.57
2023-02-06T12:43:54.510Z,5.58
2023-02-06T12:46:24.055Z,5.58
2023-02-06T12:48:54.840Z,5.64
2023-02-06T12:51:26.375Z,5.71
2023-02-06T12:53:58.154Z,5.72
2023-02-06T12:56:29.288Z,5.71
2023-02-06T12:59:06.908Z,5.76
2023-02-06T13:01:43.457Z,5.83
2023-02-06T13:04:14.110Z,5.87
2023-02-06T13:06:47.400Z,5.86
2023-02-06T13:09:21.164Z,5.90
2023-02-06T13:11:48.729Z,5.88
2023-02-06T13:14:21.770Z,5.90
2023-02-06T13:16:56.103Z,5.89
2023-02-06T13:19:30.029Z,5.88
2023-02-06T13:22:45.148Z,6.00
2023-02-06T13:25:49.793Z,6.01
2023-02-06T13:28:58.761Z,5.93
2023-02-06T13:31:35.444Z,5.98
2023-02-06T13:34:07.120Z,5.93
2023-02-06T13:36:49.122Z,5.93
2023-02-06T13:39:28.980Z,5.99
2023-02-06T13:42:00.922Z,6.02
2023-02-06T13:44:31.402Z,6.02
2023-02-06T13:47:29.220Z,6.12
2023-02-06T13:50:17.691Z,6.20
2023-02-06T13:52:51.555Z,6.19
2023-02-06T13:55:31.360Z,6.24
2023-02-06T13:58:21.466Z,6.27
2023-02-06T14:00:50.689Z,6.25
2023-02-06T14:03:23.713Z,6.27
2023-02-06T14:05:55.971Z,6.28
2023-02-06T14:08:27.631Z,6.23
2023-02-06T14:11:25.263Z,6.30
2023-02-06T14:14:17.596Z,6.28
2023-02-06T14:16:52.525Z,6.34
2023-02-06T14:19:26.780Z,6.41
2023-02-06T14:22:02.391Z,6.41
2023-02-06T14:24:41.925Z,6.46
2023-02-06T14:27:21.013Z,6.42
2023-02-06T14:29:55.464Z,6.42
2023-02-06T14:32:34.478Z,6.39
2023-02-06T14:35:28.736Z,6.37
2023-02-06T14:38:26.049Z,6.32
2023-02-06T14:40:55.156Z,6.29
2023-02-06T14:43:24.713Z,6.27
2023-02-06T14:46:06.985Z,6.27
2023-02-06T14:48:39.794Z,6.27
2023-02-06T14:51:07.942Z,6.28
2023-02-06T14:53:38.110Z,6.28
2023-02-06T14:56:08.047Z,6.29
2023-02-06T14:58:35.700Z,6.31
2023-02-06T15:01:20.400Z,6.34
2023-02-06T15:03:49.263Z,6.35
2023-02-06T15:06:30.792Z,6.42
2023-02-06T15:08:58.458Z,6.40
2023-02-06T15:11:32.234Z,6.38
2023-02-06T15:14:02.511Z,6.29
2023-02-06T15:16:32.908Z,6.23
2023-02-06T15:19:20.245Z,6.21
2023-02-06T15:21:48.141Z,6.18
2023-02-06T15:24:37.674Z,6.15
2023-02-06T15:27:10.051Z,6.20
2023-02-06T15:29:38.118Z,6.19
2023-02-06T15:32:14.374Z,6.14
2023-02-06T15:34:44.981Z,6.06
2023-02-06T15:37:23.456Z,6.03
2023-02-06T15:39:51.248Z,6.00
2023-02-06T15:42:19.421Z,6.01
2023-02-06T15:44:47.377Z,5.96
2023-02-06T15:47:19.252Z,5.98
2023-02-06T15:49:49.122Z,5.96
2023-02-06T15:52:33.099Z,5.97
2023-02-06T15:55:01.155Z,5.93
2023-02-06T15:57:30.675Z,5.89
2023-02-06T15:59:58.399Z,5.85
2023-02-06T16:02:32.683Z,5.85
2023-02-06T16:05:00.390Z,5.85
2023-02-06T16:07:30.662Z,5.82
2023-02-06T16:10:03.827Z,5.76
2023-02-06T16:12:34.154Z,5.70
2023-02-06T16:15:03.367Z,5.71
2023-02-06T16:17:34.809Z,5.67
2023-02-06T16:20:04.492Z,5.62
2023-02-06T16:22:33.621Z,5.59
2023-02-06T16:25:19.674Z,5.58
2023-02-06T16:27:48.038Z,5.53
2023-02-06T16:30:25.474Z,5.49
2023-02-06T16:32:55.531Z,5.46
2023-02-06T16:35:23.588Z,5.46
2023-02-06T16:37:52.397Z,5.35
2023-02-06T16:40:20.169Z,5.40
2023-02-06T16:42:48.041Z,5.35
2023-02-06T16:45:18.996Z,5.32
2023-02-06T16:47:46.896Z,5.33
2023-02-06T16:50:16.758Z,5.30
2023-02-06T16:52:48.492Z,5.33
2023-02-06T16:55:17.850Z,5.30
2023-02-06T16:57:46.858Z,5.26
2023-02-06T17:00:19.671Z,5.26
2023-02-06T17:02:47.273Z,5.27
2023-02-06T17:05:16.779Z,5.23
2023-02-06T17:07:44.508Z,5.25
2023-02-06T17:10:14.015Z,5.24
2023-02-06T17:12:42.771Z,5.20
2023-02-06T17:15:11.467Z,5.19
2023-02-06T17:17:39.198Z,5.10
2023-02-06T17:20:08.165Z,5.12
2023-02-06T17:22:37.236Z,5.11
2023-02-06T17:25:05.068Z,5.02
2023-02-06T17:27:32.545Z,4.99
2023-02-06T17:30:00.120Z,4.98
2023-02-06T17:32:27.859Z,4.98
2023-02-06T17:34:58.092Z,4.94
2023-02-06T17:37:25.597Z,4.93
2023-02-06T17:39:54.396Z,4.88
2023-02-06T17:42:24.137Z,4.88
2023-02-06T17:44:51.809Z,4.85
2023-02-06T17:47:19.305Z,4.71
2023-02-06T17:49:47.610Z,4.67
2023-02-06T17:52:15.548Z,4.67
2023-02-06T17:54:43.211Z,4.61
2023-02-06T17:57:13.393Z,4.68
2023-02-06T17:59:41.050Z,4.86
2023-02-06T18:02:10.198Z,4.80
2023-02-06T18:04:40.593Z,4.98
2023-02-06T18:07:08.715Z,4.97
2023-02-06T18:09:36.382Z,4.93
2023-02-06T18:12:04.254Z,4.97
2023-02-06T18:14:35.306Z,4.96
2023-02-06T18:17:05.141Z,4.94
2023-02-06T18:19:41.529Z,4.87
2023-02-06T18:22:09.692Z,4.84
2023-02-06T18:24:37.606Z,4.89
2023-02-06T18:27:05.945Z,4.87
2023-02-06T18:29:48.508Z,4.88
2023-02-06T18:32:17.780Z,4.84
2023-02-06T18:34:48.809Z,4.74
2023-02-06T18:37:16.468Z,4.70
2023-02-06T18:39:44.229Z,4.66
2023-02-06T18:42:29.948Z,4.63
2023-02-06T18:44:58.935Z,4.60
2023-02-06T18:47:26.977Z,4.45
2023-02-06T18:49:54.657Z,4.51
2023-02-06T18:52:22.340Z,4.47
2023-02-06T18:54:50.978Z,4.38
2023-02-06T18:57:18.467Z,4.34
2023-02-06T18:59:45.980Z,4.32
2023-02-06T19:02:14.894Z,4.37
2023-02-06T19:04:42.487Z,4.34
2023-02-06T19:07:11.574Z,4.11
2023-02-06T19:09:39.126Z,4.18
2023-02-06T19:12:07.225Z,4.11
2023-02-06T19:14:35.324Z,4.11
2023-02-06T19:17:02.927Z,4.09
2023-02-06T19:19:32.003Z,4.03
2023-02-06T19:21:59.767Z,4.00
2023-02-06T19:24:28.286Z,3.98
2023-02-06T19:26:58.413Z,3.91
2023-02-06T19:29:35.115Z,3.94
2023-02-06T19:32:03.672Z,3.86
2023-02-06T19:34:36.211Z,3.81
2023-02-06T19:37:04.452Z,3.81
2023-02-06T19:39:34.063Z,3.75
2023-02-06T19:42:01.900Z,3.63
2023-02-06T19:44:29.675Z,3.65
2023-02-06T19:47:00.827Z,3.58
2023-02-06T19:49:29.171Z,3.46
2023-02-06T19:51:58.098Z,3.42
2023-02-06T19:54:25.965Z,3.34
2023-02-06T19:56:54.177Z,3.36
2023-02-06T19:59:22.790Z,3.32
2023-02-06T20:01:52.031Z,3.26
2023-02-06T20:04:20.527Z,3.17
2023-02-06T20:06:50.119Z,3.08
2023-02-06T20:09:20.972Z,3.09
2023-02-06T20:11:49.350Z,3.04
2023-02-06T20:14:17.527Z,2.99
2023-02-06T20:16:45.921Z,2.96
2023-02-06T20:19:17.430Z,2.96
2023-02-06T20:21:47.723Z,2.93
2023-02-06T20:24:18.422Z,2.92
2023-02-06T20:26:48.888Z,2.84
2023-02-06T20:29:20.507Z,2.88
2023-02-06T20:31:48.613Z,2.82
2023-02-06T20:34:16.748Z,2.73
2023-02-06T20:36:44.833Z,2.63
2023-02-06T20:39:14.225Z,2.55
2023-02-06T20:41:42.243Z,2.50
2023-02-06T20:44:13.735Z,2.50
2023-02-06T20:46:42.719Z,2.52
2023-02-06T20:49:14.499Z,2.54
2023-02-06T20:51:43.784Z,2.55
2023-02-06T20:54:12.376Z,2.50
2023-02-06T20:56:40.443Z,2.56
2023-02-06T20:59:08.397Z,2.60
2023-02-06T21:01:38.776Z,2.57
2023-02-06T21:04:09.220Z,2.55
2023-02-06T21:06:38.459Z,2.48
2023-02-06T21:09:06.871Z,2.45
2023-02-06T21:11:36.642Z,2.43
2023-02-06T21:14:05.673Z,2.42
2023-02-06T21:16:34.406Z,2.43
2023-02-06T21:19:04.575Z,2.40
2023-02-06T21:21:32.418Z,2.42
2023-02-06T21:24:00.126Z,2.44
2023-02-06T21:26:29.249Z,2.40
2023-02-06T21:28:58.254Z,2.36
2023-02-06T21:31:34.155Z,2.36
2023-02-06T21:34:07.186Z,2.33
2023-02-06T21:36:35.892Z,2.35
2023-02-06T21:39:04.463Z,2.36
2023-02-06T21:41:32.249Z,2.30
2023-02-06T21:44:00.056Z,2.30
2023-02-06T21:46:30.255Z,2.12
2023-02-06T21:48:57.913Z,2.25
2023-02-06T21:51:26.799Z,2.29
2023-02-06T21:53:54.395Z,2.30
2023-02-06T21:56:23.714Z,2.24
2023-02-06T21:58:51.977Z,2.24
2023-02-06T22:01:20.955Z,2.27
2023-02-06T22:03:49.057Z,2.25
2023-02-06T22:06:19.700Z,2.23
2023-02-06T22:08:51.745Z,2.27
2023-02-06T22:11:22.102Z,2.24
2023-02-06T22:13:50.482Z,2.37
2023-02-06T22:16:20.541Z,2.39
2023-02-06T22:18:48.460Z,2.34
2023-02-06T22:21:17.590Z,2.26
2023-02-06T22:23:46.281Z,2.25
2023-02-06T22:26:17.015Z,2.23
2023-02-06T22:28:47.111Z,2.23
2023-02-06T22:31:16.515Z,2.24
2023-02-06T22:33:46.885Z,2.31
2023-02-06T22:36:17.290Z,2.32
2023-02-06T22:38:46.067Z,2.21
2023-02-06T22:41:17.822Z,2.17
2023-02-06T22:43:46.610Z,2.17
2023-02-06T22:46:20.682Z,2.14
2023-02-06T22:48:48.466Z,2.15
2023-02-06T22:51:16.449Z,2.11
2023-02-06T22:53:44.327Z,2.10
2023-02-06T22:56:29.508Z,2.13
2023-02-06T22:59:00.100Z,2.10
2023-02-06T23:01:31.863Z,2.13
2023-02-06T23:04:00.464Z,2.17
2023-02-06T23:06:31.132Z,2.16
2023-02-06T23:08:59.368Z,2.18
2023-02-06T23:11:28.391Z,2.24
2023-02-06T23:14:00.173Z,2.26
2023-02-06T23:16:28.879Z,2.30
2023-02-06T23:18:56.697Z,2.23
2023-02-06T23:21:27.230Z,2.26
2023-02-06T23:23:55.423Z,2.30
2023-02-06T23:26:23.575Z,2.28
2023-02-06T23:28:51.248Z,2.28
2023-02-06T23:31:23.799Z,2.29
2023-02-06T23:33:51.514Z,2.28
2023-02-06T23:36:20.779Z,2.21
2023-02-06T23:38:48.775Z,2.31
2023-02-06T23:41:18.438Z,2.27
2023-02-06T23:43:50.573Z,2.20
2023-02-06T23:46:19.797Z,2.17
2023-02-06T23:48:49.400Z,2.17
2023-02-06T23:51:17.644Z,2.15
2023-02-06T23:53:45.192Z,2.13
2023-02-06T23:56:13.388Z,2.08
2023-02-06T23:58:40.860Z,2.04
